LGZA/ZTH METAR and TAF weather

Enter ICAO airport designator
Station Type Date Time Source
LGZA METAR 2019/12/08 06:50 UTC NOAA

LGZA 080650Z VRB01KT 9999 FEW016 SCT060 13/11 Q1019


Station Type Date Time Source
LGZA Decoded METAR 2019/12/08 06:50 UTC NOAA

Zakinthos Airport , Greece (LGZA) 37-45N 020-53E
Dec 08, 2019 - 01:50 AM EST / 2019.12.08 0650 UTC
Wind: Variable at 1 MPH (1 KT):0
Visibility: greater than 7 mile(s):0
Sky conditions: partly cloudy
Temperature: 55 F (13 C)
Dew Point: 51 F (11 C)
Relative Humidity: 87%
Pressure (altimeter): 30.09 in. Hg (1019 hPa)
ob: LGZA 080650Z VRB01KT 9999 FEW016 SCT060 13/11 Q1019
cycle: 7

Station Type Date Time Source
LGZA TAF 2011/11/25 15:06 UTC NOAA

TAF TAF LGZA 251400Z 2515/2603 02012KT 9999 FEW025 SCT035 BKN080 PROB30
TEMPO 2518/2603 8000 RA PROB30 2522/2603 5000 BR SCT010

Example: see airport list